createdAt,value
2023-02-09T00:02:10.810Z,6.28
2023-02-09T00:04:38.420Z,6.75
2023-02-09T00:07:06.095Z,7.43
2023-02-09T00:09:33.644Z,7.45
2023-02-09T00:12:19.875Z,7.22
2023-02-09T00:14:47.396Z,7.30
2023-02-09T00:17:14.998Z,7.22
2023-02-09T00:19:42.516Z,7.70
2023-02-09T00:22:10.090Z,7.20
2023-02-09T00:24:37.651Z,7.35
2023-02-09T00:27:05.261Z,6.70
2023-02-09T00:29:32.993Z,7.13
2023-02-09T00:32:00.697Z,6.75
2023-02-09T00:34:28.265Z,6.93
2023-02-09T00:36:56.048Z,7.15
2023-02-09T00:39:23.960Z,8.00
2023-02-09T00:42:06.799Z,7.75
2023-02-09T00:44:35.276Z,7.65
2023-02-09T00:47:03.038Z,7.93
2023-02-09T00:49:30.965Z,7.43
2023-02-09T00:52:00.241Z,8.18
2023-02-09T00:54:27.909Z,8.43
2023-02-09T00:56:55.606Z,8.65
2023-02-09T00:59:23.147Z,7.65
2023-02-09T01:01:50.694Z,7.93
2023-02-09T01:04:18.311Z,9.30
2023-02-09T01:06:48.175Z,8.95
2023-02-09T01:09:17.325Z,9.43
2023-02-09T01:11:44.890Z,8.75
2023-02-09T01:14:12.521Z,8.25
2023-02-09T01:16:40.123Z,9.02
2023-02-09T01:19:07.724Z,8.88
2023-02-09T01:21:35.300Z,9.23
2023-02-09T01:24:03.011Z,8.90
2023-02-09T01:26:30.566Z,8.30
2023-02-09T01:28:58.096Z,8.75
2023-02-09T01:31:30.312Z,7.90
2023-02-09T01:33:58.855Z,9.10
2023-02-09T01:36:28.568Z,8.45
2023-02-09T01:38:59.173Z,8.55
2023-02-09T01:41:27.158Z,8.90
2023-02-09T01:43:56.767Z,8.40
2023-02-09T01:46:25.057Z,8.38
2023-02-09T01:48:54.784Z,8.27
2023-02-09T01:51:23.056Z,8.15
2023-02-09T01:53:51.313Z,7.00
2023-02-09T01:56:21.441Z,8.45
2023-02-09T01:58:49.392Z,7.78
2023-02-09T02:01:17.333Z,7.82
2023-02-09T02:03:45.056Z,7.43
2023-02-09T02:06:14.691Z,8.48
2023-02-09T02:08:46.045Z,7.57
2023-02-09T02:11:14.043Z,8.57
2023-02-09T02:13:41.780Z,7.50
2023-02-09T02:16:27.850Z,8.10
2023-02-09T02:18:55.424Z,7.97
2023-02-09T02:21:41.549Z,7.80
2023-02-09T02:24:22.657Z,7.85
2023-02-09T02:27:14.232Z,7.65
2023-02-09T02:29:48.288Z,7.68
2023-02-09T02:32:25.447Z,7.18
2023-02-09T02:35:05.222Z,6.93
2023-02-09T02:37:35.751Z,8.02
2023-02-09T02:40:21.367Z,7.40
2023-02-09T02:42:54.833Z,7.10
2023-02-09T02:45:45.638Z,7.28
2023-02-09T02:48:19.333Z,7.38
2023-02-09T02:50:58.816Z,7.70
2023-02-09T02:53:31.124Z,7.35
2023-02-09T02:56:02.025Z,7.35
2023-02-09T02:58:30.130Z,7.57
2023-02-09T03:01:00.200Z,6.95
2023-02-09T03:03:31.887Z,7.38
2023-02-09T03:06:01.062Z,6.90
2023-02-09T03:08:28.605Z,6.53
2023-02-09T03:10:56.410Z,7.50
2023-02-09T03:13:35.024Z,7.30
2023-02-09T03:16:19.114Z,7.30
2023-02-09T03:18:49.497Z,6.90
2023-02-09T03:21:24.448Z,6.57
2023-02-09T03:24:10.474Z,7.43
2023-02-09T03:26:42.902Z,7.22
2023-02-09T03:29:11.490Z,7.95
2023-02-09T03:31:39.125Z,7.20
2023-02-09T03:34:07.074Z,6.75
2023-02-09T03:36:35.718Z,7.63
2023-02-09T03:39:03.432Z,6.70
2023-02-09T03:41:31.019Z,7.38
2023-02-09T03:44:17.457Z,7.25
2023-02-09T03:46:45.235Z,7.60
2023-02-09T03:49:14.708Z,7.45
2023-02-09T03:51:42.861Z,7.43
2023-02-09T03:54:10.436Z,7.50
2023-02-09T03:56:37.993Z,8.32
2023-02-09T03:59:05.934Z,7.25
2023-02-09T04:01:33.805Z,7.20
2023-02-09T04:04:04.517Z,8.52
2023-02-09T04:06:32.986Z,8.33
2023-02-09T04:09:00.694Z,7.57
2023-02-09T04:11:28.351Z,7.72
2023-02-09T04:13:55.863Z,7.55
2023-02-09T04:16:23.566Z,8.10
2023-02-09T04:18:51.169Z,7.22
2023-02-09T04:21:19.721Z,7.80
2023-02-09T04:23:47.420Z,8.57
2023-02-09T04:26:15.370Z,9.65
2023-02-09T04:28:42.956Z,9.02
2023-02-09T04:31:10.663Z,8.45
2023-02-09T04:33:38.448Z,9.20
2023-02-09T04:36:06.466Z,8.98
2023-02-09T04:38:34.065Z,9.50
2023-02-09T04:41:02.332Z,9.82
2023-02-09T04:43:30.447Z,10.57
2023-02-09T04:45:58.256Z,11.15
2023-02-09T04:48:27.144Z,11.30
2023-02-09T04:50:54.793Z,13.68
2023-02-09T04:53:22.821Z,14.40
2023-02-09T04:55:51.342Z,13.80
2023-02-09T04:58:38.959Z,13.43
2023-02-09T05:01:07.235Z,13.50
2023-02-09T05:03:34.888Z,14.25
2023-02-09T05:06:04.981Z,14.13
2023-02-09T05:08:32.654Z,14.30
2023-02-09T05:11:00.530Z,14.23
2023-02-09T05:13:28.121Z,12.82
2023-02-09T05:15:55.845Z,14.07
2023-02-09T05:18:23.917Z,13.82
2023-02-09T05:20:51.542Z,15.00
2023-02-09T05:23:19.162Z,14.85
2023-02-09T05:25:47.898Z,13.98
2023-02-09T05:28:15.749Z,14.10
2023-02-09T05:30:44.086Z,14.00
2023-02-09T05:33:12.025Z,14.73
2023-02-09T05:35:39.565Z,13.82
2023-02-09T05:38:07.142Z,15.02
2023-02-09T05:40:34.726Z,13.68
2023-02-09T05:43:03.284Z,14.75
2023-02-09T05:45:30.856Z,15.95
2023-02-09T05:47:58.457Z,14.20
2023-02-09T05:50:26.029Z,14.30
2023-02-09T05:52:56.412Z,15.48
2023-02-09T05:55:24.021Z,15.32
2023-02-09T05:57:51.626Z,14.80
2023-02-09T06:00:19.246Z,19.52
2023-02-09T06:02:46.829Z,16.92
2023-02-09T06:05:14.449Z,15.20
2023-02-09T06:07:42.036Z,15.65
2023-02-09T06:10:09.832Z,16.40
2023-02-09T06:12:37.400Z,13.63
2023-02-09T06:15:05.254Z,16.65
2023-02-09T06:17:32.822Z,16.02
2023-02-09T06:20:00.413Z,16.63
2023-02-09T06:22:29.163Z,16.00
2023-02-09T06:24:56.815Z,15.25
2023-02-09T06:27:24.382Z,15.10
2023-02-09T06:29:52.053Z,15.35
2023-02-09T06:32:19.758Z,15.23
2023-02-09T06:34:48.428Z,15.18
2023-02-09T06:37:16.076Z,15.18
2023-02-09T06:39:43.627Z,15.32
2023-02-09T06:42:11.274Z,14.65
2023-02-09T06:44:38.858Z,14.23
2023-02-09T06:47:06.388Z,15.27
2023-02-09T06:49:33.918Z,15.20
2023-02-09T06:52:01.754Z,15.77
2023-02-09T06:54:29.402Z,15.57
2023-02-09T06:56:57.091Z,15.63
2023-02-09T06:59:24.657Z,15.00
2023-02-09T07:01:54.768Z,15.30
2023-02-09T07:04:22.823Z,14.57
2023-02-09T07:06:50.454Z,13.57
2023-02-09T07:09:18.029Z,13.02
2023-02-09T07:11:45.632Z,12.75
2023-02-09T07:14:13.183Z,11.90
2023-02-09T07:16:40.819Z,12.77
2023-02-09T07:19:08.337Z,12.93
2023-02-09T07:21:35.852Z,12.80
2023-02-09T07:24:03.406Z,11.77
2023-02-09T07:26:30.964Z,11.68
2023-02-09T07:28:58.529Z,10.95
2023-02-09T07:31:27.112Z,11.20
2023-02-09T07:33:55.820Z,11.55
2023-02-09T07:36:23.552Z,11.63
2023-02-09T07:38:51.472Z,11.40
2023-02-09T07:41:20.578Z,11.07
2023-02-09T07:43:48.393Z,10.30
2023-02-09T07:46:16.986Z,10.85
2023-02-09T07:48:44.660Z,10.45
2023-02-09T07:51:15.975Z,10.80
2023-02-09T07:53:43.954Z,10.95
2023-02-09T07:56:11.554Z,11.07
2023-02-09T07:58:39.272Z,11.23
2023-02-09T08:01:08.073Z,11.52
2023-02-09T08:03:36.230Z,12.35
2023-02-09T08:06:40.736Z,10.48
2023-02-09T08:09:09.851Z,10.88
2023-02-09T08:11:55.537Z,10.55
2023-02-09T08:14:26.113Z,10.90
2023-02-09T08:17:18.535Z,8.07
2023-02-09T08:19:48.729Z,10.20
2023-02-09T08:22:16.588Z,9.82
2023-02-09T08:24:44.172Z,11.35
2023-02-09T08:27:11.816Z,11.32
2023-02-09T08:29:39.432Z,10.50
2023-02-09T08:32:07.197Z,9.68
2023-02-09T08:34:34.898Z,10.13
2023-02-09T08:37:02.433Z,9.98
2023-02-09T08:39:31.348Z,10.45
2023-02-09T08:41:58.931Z,10.43
2023-02-09T08:44:26.741Z,8.85
2023-02-09T08:46:54.497Z,8.50
2023-02-09T08:49:22.356Z,9.90
2023-02-09T08:51:49.969Z,9.30
2023-02-09T08:54:17.538Z,9.25
2023-02-09T08:56:45.060Z,11.50
2023-02-09T08:59:12.744Z,9.48
2023-02-09T09:01:40.473Z,9.75
2023-02-09T09:04:08.290Z,9.40
2023-02-09T09:06:36.283Z,9.38
2023-02-09T09:09:04.214Z,9.15
2023-02-09T09:11:31.881Z,9.73
2023-02-09T09:13:59.486Z,9.05
2023-02-09T09:16:27.107Z,9.27
2023-02-09T09:18:54.664Z,10.02
2023-02-09T09:21:22.353Z,9.98
2023-02-09T09:23:49.928Z,9.05
2023-02-09T09:26:17.735Z,9.45
2023-02-09T09:28:45.618Z,8.88
2023-02-09T09:31:15.167Z,8.82
2023-02-09T09:33:43.559Z,9.13
2023-02-09T09:36:11.797Z,9.15
2023-02-09T09:38:39.886Z,9.02
2023-02-09T09:41:17.762Z,8.48
2023-02-09T09:43:45.469Z,8.20
2023-02-09T09:46:17.734Z,8.70
2023-02-09T09:48:47.796Z,7.60
2023-02-09T09:51:24.163Z,8.73
2023-02-09T09:53:54.214Z,8.05
2023-02-09T09:56:21.864Z,7.47
2023-02-09T09:58:51.386Z,7.85
2023-02-09T10:01:21.138Z,7.57
2023-02-09T10:03:48.821Z,7.55
2023-02-09T10:06:16.394Z,7.45
2023-02-09T10:08:48.410Z,7.28
2023-02-09T10:11:17.304Z,6.38
2023-02-09T10:13:53.400Z,7.57
2023-02-09T10:16:28.941Z,7.55
2023-02-09T10:18:58.074Z,6.80
2023-02-09T10:21:27.224Z,6.32
2023-02-09T10:24:01.944Z,7.00
2023-02-09T10:26:33.708Z,6.22
2023-02-09T10:31:34.772Z,6.05
2023-02-09T10:34:17.388Z,6.88
2023-02-09T10:36:44.928Z,6.90
2023-02-09T10:39:12.446Z,6.72
2023-02-09T10:41:41.873Z,7.10
2023-02-09T10:44:14.013Z,6.90
2023-02-09T10:46:41.693Z,7.15
2023-02-09T10:49:27.827Z,7.60
2023-02-09T10:52:13.788Z,7.05
2023-02-09T10:54:47.674Z,7.60
2023-02-09T10:57:23.131Z,7.03
2023-02-09T10:59:55.182Z,7.60
2023-02-09T11:02:43.102Z,7.03
2023-02-09T11:05:22.708Z,7.00
2023-02-09T11:08:08.744Z,7.32
2023-02-09T11:10:39.595Z,7.55
2023-02-09T11:13:17.281Z,7.70
2023-02-09T11:15:48.644Z,7.45
2023-02-09T11:18:20.707Z,7.07
2023-02-09T11:23:35.526Z,6.97
2023-02-09T11:26:08.949Z,7.72
2023-02-09T11:28:36.482Z,6.88
2023-02-09T11:31:18.226Z,7.00
2023-02-09T11:33:56.626Z,6.68
2023-02-09T11:36:33.560Z,6.90
2023-02-09T11:39:03.955Z,7.10
2023-02-09T11:41:55.945Z,7.28
2023-02-09T11:44:31.281Z,7.60
2023-02-09T11:47:04.497Z,6.95
2023-02-09T11:49:39.188Z,7.18
2023-02-09T11:52:07.672Z,7.47
2023-02-09T11:54:35.551Z,7.40
2023-02-09T11:57:06.234Z,7.07
2023-02-09T11:59:37.059Z,7.15
2023-02-09T12:02:23.953Z,7.30
2023-02-09T12:04:58.129Z,7.97
2023-02-09T12:07:33.048Z,7.63
2023-02-09T12:10:16.030Z,7.72
2023-02-09T12:12:53.026Z,7.50
2023-02-09T12:15:23.209Z,7.63
2023-02-09T12:18:01.579Z,7.32
2023-02-09T12:20:30.733Z,7.40
2023-02-09T12:23:00.931Z,8.20
2023-02-09T12:25:37.570Z,7.78
2023-02-09T12:28:05.245Z,7.38
2023-02-09T12:30:41.807Z,7.72
2023-02-09T12:33:29.824Z,8.40
2023-02-09T12:36:03.481Z,8.30
2023-02-09T12:38:52.324Z,8.60
2023-02-09T12:41:23.498Z,8.97
2023-02-09T12:43:54.239Z,9.25
2023-02-09T12:46:24.923Z,8.60
2023-02-09T12:49:19.930Z,9.70
2023-02-09T12:51:50.246Z,10.02
2023-02-09T12:54:36.790Z,10.13
2023-02-09T12:57:16.761Z,10.25
2023-02-09T12:59:50.716Z,9.80
2023-02-09T13:02:24.994Z,10.10
2023-02-09T13:05:01.638Z,9.13
2023-02-09T13:07:47.721Z,9.52
2023-02-09T13:10:34.187Z,9.55
2023-02-09T13:13:10.944Z,9.23
2023-02-09T13:15:44.687Z,9.32
2023-02-09T13:18:24.732Z,8.95
2023-02-09T13:21:10.950Z,9.23
2023-02-09T13:23:41.401Z,8.48
2023-02-09T13:26:29.276Z,8.05
2023-02-09T13:29:20.570Z,8.93
2023-02-09T13:31:58.233Z,9.15
2023-02-09T13:34:44.721Z,8.45
2023-02-09T13:37:29.729Z,8.82
2023-02-09T13:40:01.229Z,9.35
2023-02-09T13:42:35.774Z,8.93
2023-02-09T13:45:03.339Z,8.93
2023-02-09T13:47:30.951Z,8.60
2023-02-09T13:50:03.279Z,8.75
2023-02-09T13:52:39.188Z,8.85
2023-02-09T13:55:12.941Z,9.38
2023-02-09T13:57:42.276Z,9.40
2023-02-09T14:00:30.088Z,9.52
2023-02-09T14:03:15.061Z,10.65
2023-02-09T14:05:56.140Z,10.05
2023-02-09T14:08:24.269Z,9.48
2023-02-09T14:10:54.153Z,9.13
2023-02-09T14:13:27.662Z,8.77
2023-02-09T14:16:10.704Z,9.65
2023-02-09T14:18:49.332Z,9.00
2023-02-09T14:21:25.999Z,8.75
2023-02-09T14:23:56.939Z,8.20
2023-02-09T14:26:26.658Z,9.50
2023-02-09T14:28:54.246Z,9.18
2023-02-09T14:31:25.637Z,8.65
2023-02-09T14:33:54.860Z,8.60
2023-02-09T14:36:24.015Z,9.00
2023-02-09T14:38:51.736Z,8.82
2023-02-09T14:41:19.256Z,9.40
2023-02-09T14:43:57.065Z,8.95
2023-02-09T14:46:24.706Z,10.48
2023-02-09T14:48:56.615Z,10.18
2023-02-09T14:53:51.768Z,9.27
2023-02-09T14:56:24.493Z,9.25
2023-02-09T14:58:52.161Z,10.35
2023-02-09T15:01:19.738Z,9.95
2023-02-09T15:03:47.356Z,10.70
2023-02-09T15:06:15.641Z,9.18
2023-02-09T15:08:43.301Z,10.20
2023-02-09T15:11:42.254Z,10.43
2023-02-09T15:14:10.610Z,11.25
2023-02-09T15:16:38.188Z,8.73
2023-02-09T15:19:11.403Z,10.23
2023-02-09T15:21:38.937Z,10.43
2023-02-09T15:24:06.639Z,11.20
2023-02-09T15:26:36.401Z,10.18
2023-02-09T15:29:10.154Z,11.00
2023-02-09T15:31:37.759Z,10.23
2023-02-09T15:34:06.057Z,10.20
2023-02-09T15:36:33.839Z,10.55
2023-02-09T15:39:01.374Z,11.13
2023-02-09T15:41:47.618Z,10.75
2023-02-09T15:44:38.026Z,10.35
2023-02-09T15:47:24.928Z,10.38
2023-02-09T15:49:52.545Z,10.43
2023-02-09T15:52:20.122Z,11.27
2023-02-09T15:54:49.197Z,10.45
2023-02-09T15:57:16.773Z,10.40
2023-02-09T15:59:46.188Z,10.52
2023-02-09T16:02:14.755Z,10.68
2023-02-09T16:04:42.363Z,11.32
2023-02-09T16:07:13.396Z,11.18
2023-02-09T16:09:43.401Z,10.55
2023-02-09T16:12:12.060Z,10.85
2023-02-09T16:14:39.748Z,11.18
2023-02-09T16:17:08.030Z,10.93
2023-02-09T16:19:35.789Z,11.07
2023-02-09T16:22:06.654Z,10.30
2023-02-09T16:24:40.512Z,8.03
2023-02-09T16:27:13.186Z,11.18
2023-02-09T16:29:40.741Z,11.10
2023-02-09T16:32:15.245Z,11.73
2023-02-09T16:34:42.874Z,11.30
2023-02-09T16:37:11.849Z,11.07
2023-02-09T16:39:39.554Z,10.98
2023-02-09T16:42:11.462Z,10.90
2023-02-09T16:44:45.608Z,11.57
2023-02-09T16:47:25.715Z,11.93
2023-02-09T16:49:59.600Z,11.63
2023-02-09T16:52:28.125Z,12.38
2023-02-09T16:54:57.448Z,11.98
2023-02-09T16:57:25.396Z,12.20
2023-02-09T16:59:53.497Z,12.00
2023-02-09T17:02:21.244Z,12.05
2023-02-09T17:04:50.544Z,11.15
2023-02-09T17:07:18.161Z,12.25
2023-02-09T17:09:45.779Z,12.02
2023-02-09T17:12:13.381Z,12.07
2023-02-09T17:14:40.908Z,11.65
2023-02-09T17:17:10.611Z,11.77
2023-02-09T17:19:47.266Z,12.95
2023-02-09T17:22:16.036Z,12.95
2023-02-09T17:24:43.660Z,13.48
2023-02-09T17:27:11.210Z,13.90
2023-02-09T17:29:38.765Z,11.70
2023-02-09T17:32:06.382Z,13.35
2023-02-09T17:34:33.995Z,13.80
2023-02-09T17:37:01.624Z,13.65
2023-02-09T17:39:30.840Z,14.07
2023-02-09T17:41:59.548Z,13.85
2023-02-09T17:44:44.961Z,14.07
2023-02-09T17:47:16.101Z,13.02
2023-02-09T17:49:43.780Z,13.05
2023-02-09T17:52:18.415Z,14.27
2023-02-09T17:54:46.003Z,13.68
2023-02-09T17:57:15.038Z,14.35
2023-02-09T17:59:42.729Z,14.60
2023-02-09T18:02:15.390Z,16.83
2023-02-09T18:04:42.952Z,16.08
2023-02-09T18:07:10.796Z,16.10
2023-02-09T18:09:38.417Z,15.27
2023-02-09T18:12:16.190Z,15.88
2023-02-09T18:14:43.767Z,16.30
2023-02-09T18:17:11.365Z,15.02
2023-02-09T18:19:38.917Z,16.38
2023-02-09T18:22:06.854Z,16.73
2023-02-09T18:24:35.319Z,16.50
2023-02-09T18:27:03.375Z,16.00
2023-02-09T18:29:32.998Z,17.48
2023-02-09T18:32:01.293Z,17.92
2023-02-09T18:34:29.064Z,16.48
2023-02-09T18:36:56.704Z,16.90
2023-02-09T18:39:24.414Z,18.30
2023-02-09T18:41:54.455Z,18.52
2023-02-09T18:44:28.883Z,16.92
2023-02-09T18:46:57.364Z,17.98
2023-02-09T18:49:24.957Z,18.73
2023-02-09T18:51:52.733Z,17.65
2023-02-09T18:54:20.652Z,16.67
2023-02-09T18:56:48.245Z,17.88
2023-02-09T18:59:17.651Z,17.90
2023-02-09T19:01:46.292Z,17.35
2023-02-09T19:04:15.967Z,17.38
2023-02-09T19:06:43.514Z,18.27
2023-02-09T19:09:11.121Z,19.65
2023-02-09T19:11:38.668Z,19.08
2023-02-09T19:14:24.920Z,19.65
2023-02-09T19:16:52.450Z,20.23
2023-02-09T19:19:20.639Z,20.30
2023-02-09T19:21:51.920Z,20.33
2023-02-09T19:24:19.905Z,18.52
2023-02-09T19:26:48.541Z,20.50
2023-02-09T19:29:16.311Z,21.98
2023-02-09T19:31:44.094Z,20.60
2023-02-09T19:34:12.708Z,21.00
2023-02-09T19:36:40.253Z,21.75
2023-02-09T19:39:07.807Z,21.23
2023-02-09T19:41:35.770Z,22.05
2023-02-09T19:44:04.281Z,21.60
2023-02-09T19:46:32.722Z,20.55
2023-02-09T19:49:00.941Z,48.63
2023-02-09T19:51:28.582Z,22.00
2023-02-09T19:53:56.271Z,21.83
2023-02-09T19:56:24.025Z,22.63
2023-02-09T19:58:51.978Z,21.98
2023-02-09T20:01:20.180Z,20.55
2023-02-09T20:03:49.407Z,20.60
2023-02-09T20:06:17.383Z,21.58
2023-02-09T20:08:44.979Z,22.02
2023-02-09T20:11:16.569Z,22.80
2023-02-09T20:13:44.196Z,22.15
2023-02-09T20:16:17.774Z,22.52
2023-02-09T20:18:48.747Z,21.63
2023-02-09T20:21:17.554Z,22.23
2023-02-09T20:23:46.698Z,23.50
2023-02-09T20:26:16.687Z,23.17
2023-02-09T20:28:44.440Z,24.15
2023-02-09T20:31:13.787Z,23.10
2023-02-09T20:33:43.141Z,21.98
2023-02-09T20:36:10.748Z,24.67
2023-02-09T20:38:38.664Z,25.80
2023-02-09T20:41:10.255Z,25.80
2023-02-09T20:46:41.949Z,25.88
2023-02-09T20:49:10.559Z,26.53
2023-02-09T20:51:38.536Z,28.05
2023-02-09T20:54:06.144Z,25.83
2023-02-09T20:56:33.741Z,26.38
2023-02-09T20:59:01.302Z,26.20
2023-02-09T21:01:28.894Z,25.17
2023-02-09T21:03:58.670Z,24.15
2023-02-09T21:06:27.095Z,23.95
2023-02-09T21:08:54.628Z,25.85
2023-02-09T21:11:22.206Z,26.60
2023-02-09T21:13:49.849Z,27.17
2023-02-09T21:16:17.659Z,25.08
2023-02-09T21:18:45.719Z,26.27
2023-02-09T21:21:17.266Z,24.95
2023-02-09T21:23:45.492Z,25.85
2023-02-09T21:26:15.477Z,27.42
2023-02-09T21:28:44.128Z,26.95
2023-02-09T21:31:12.585Z,26.10
2023-02-09T21:33:40.417Z,26.45
2023-02-09T21:36:08.383Z,26.80
2023-02-09T21:38:41.474Z,25.58
2023-02-09T21:41:30.632Z,27.42
2023-02-09T21:43:58.425Z,25.23
2023-02-09T21:46:26.043Z,25.45
2023-02-09T21:48:54.104Z,26.33
2023-02-09T21:51:21.866Z,25.35
2023-02-09T21:53:49.605Z,24.58
2023-02-09T21:56:17.174Z,25.08
2023-02-09T21:58:44.910Z,25.65
2023-02-09T22:01:12.540Z,24.55
2023-02-09T22:03:40.305Z,25.33
2023-02-09T22:06:07.976Z,24.20
2023-02-09T22:08:35.592Z,24.02
2023-02-09T22:11:03.836Z,25.30
2023-02-09T22:13:31.448Z,23.73
2023-02-09T22:15:58.983Z,24.73
2023-02-09T22:18:26.605Z,25.92
2023-02-09T22:20:54.138Z,23.65
2023-02-09T22:23:21.718Z,24.83
2023-02-09T22:25:49.238Z,24.70
2023-02-09T22:28:16.833Z,24.77
2023-02-09T22:30:44.602Z,25.98
2023-02-09T22:33:12.279Z,26.55
2023-02-09T22:35:41.447Z,27.63
2023-02-09T22:38:09.006Z,25.90
2023-02-09T22:40:36.540Z,24.85
2023-02-09T22:43:04.190Z,26.35
2023-02-09T22:45:32.068Z,25.80
2023-02-09T22:47:59.639Z,23.52
2023-02-09T22:50:27.175Z,25.08
2023-02-09T22:52:54.751Z,25.90
2023-02-09T22:55:22.356Z,24.05
2023-02-09T22:57:49.909Z,25.15
2023-02-09T23:00:17.727Z,24.73
2023-02-09T23:02:45.281Z,22.63
2023-02-09T23:05:12.878Z,23.08
2023-02-09T23:07:41.468Z,23.58
2023-02-09T23:10:09.170Z,23.40
2023-02-09T23:12:36.770Z,23.08
2023-02-09T23:15:04.426Z,23.25
2023-02-09T23:17:32.864Z,22.10
2023-02-09T23:20:00.403Z,22.45
2023-02-09T23:22:27.962Z,22.02
2023-02-09T23:24:55.541Z,22.77
2023-02-09T23:27:23.077Z,20.50
2023-02-09T23:29:50.620Z,21.10
2023-02-09T23:32:18.212Z,15.65
2023-02-09T23:34:45.811Z,15.88
2023-02-09T23:37:19.214Z,18.67
2023-02-09T23:39:51.296Z,16.63
2023-02-09T23:42:18.832Z,20.40
2023-02-09T23:44:46.362Z,18.85
2023-02-09T23:47:13.902Z,18.02
2023-02-09T23:49:41.441Z,19.10
2023-02-09T23:52:08.975Z,17.90
2023-02-09T23:54:36.562Z,19.17
2023-02-09T23:57:04.177Z,18.88
2023-02-09T23:59:31.812Z,19.83
